Sapphire, NC (28774)

11:40 PM EST del 02 Dicembre 2016 (GMT -0500)
Burlingame | | Change Station

Alt. 3104 ft 35.11 °N, 82.98 °W | Updated 2 minutes ago

Clear
Sereno
41.4 °F
Sembra 41 °F
N
0.9
Vento Variabile Vento da Est
Gusts 2.5 mph

Oggi
Massima -- | Minima -- °F
--% Possibilità di precip.
Ieri
Massima -- | Minima -- °F
Precip. -- in
Pressione 30.20 in
Visibilità 10.0 miglia
Nuvole Sereno
Raffreddamento del vento 41 °F
Punto di rugiada 19 °F
Umidità 40%
Piovosità 0.00 in
Spessore del manto nevoso Non disponibile.
7:23 AM 5:19 PM
Luna crescente, 12% visible
METAR KAVL 030354Z 33012KT 10SM CLR 06/M03 A3020 RMK AO2 SLP225 T00561033
Pressione 30.20 in
Visibilità 10.0 miglia
Nuvole Sereno
Raffreddamento del vento 41 °F
Punto di rugiada 19 °F
Umidità 40%
Piovosità 0.00 in
Spessore del manto nevoso Non disponibile.
7:23 AM 5:19 PM
Luna crescente, 12% visible
METAR KAVL 030354Z 33012KT 10SM CLR 06/M03 A3020 RMK AO2 SLP225 T00561033

10-Day Weather Forecast

Almanac

Astronomia

Dec. 02, 2016 Alba Tramonto
Ora attuale
Crepuscolo civile
Crepuscolo nautico
Crepuscolo astronomico
Luna
Estensione della luce visibile
Lunghezza del giorno
Tomorrow will be .
, % of the Moon is Illuminated

Gli estremi di oggi

State Highs State Lows

Community

WunderPhotos

Upload Photos

1,955,411 foto caricate!

WunderBlog® & News

Nearby

Qualità dell'aria

  Qualità dell'aria Indice AQ Inquinante
Not available.

Profondità neve

Stazione Profondità Altitudine

Attività sismica

Città  Distanza Mag. Data & Ora
Minimo Magnitudo Mostrato è 2.5.

Temperature delle acque costiere

Località Temperatura

Stations

Stazioni meteo nelle vicinanze

Ubicazione della stazione Temp. Raffreddamento del vento Punto di rugiada Umidità Vento Precip. Alt. Aggiornato Tipo
                   

Watches & Warnings

There are currently no watches in effect.